Darstellungsparameter: Aktuell verwendete Einstellungen:
Skalierung der Graphiken ... ?
xyx+y,   Skalierungsfaktor:      Skalierung: Modus: x, Faktor: 1
Darstellungszeitraum ... ?
Vom - - bis: - -   Zeitraum: 01.10.2020 - 01.10.2020
Min/Max/Avg-Anzeige ... ?
Zeige MMA aktuell
Zeige MMA Monat
Zeige MMA alles
Zeige --A aktuell
Zeige --A Monat
Zeige --A alles
Keine MMA-Anzeige
MMA:
Keine MMA-Graphiken
MMA-Basis: 01.10.2020 - 01.10.2020
Quicknavigation für Darstellung... ?
Tage:      1T, 2T, 3T, 5T -1T -2T -3T -5T +1T +2T +3T +5T
Wochen: 1W, 2W, 3W -1W -2W -3W +1W +2W +3W
Monate: 1M, 3M, 6M -1M -3M -6M +1M +3M +6M
Jahre:    1J, 3J, 5J, 10J -1J -3J -5J -10J +1J +3J +5J +10J
Nutze für die Darstellung ... ?
Originaldaten oder Mittelwerte auf ...
Stundenbasis Tagesbasis Wochenbasis
Monatsbasis Jahresbasis      Datenbasis: Original-Daten
Darstellen als:
Statistik (Auto) Statistik J:M      Darstellung:
Zur Graphik,    zurück zur Übersicht aller Sensoren.
 
Tabellarische Datenbersicht: ?
 
Sensor: Nr:Datum:Temp:Feuchte:
Aussen-T/F 1 01-10-2020 02:07:18 9.9 C 45 %
2 01-10-2020 02:17:17 9.7 C 45 %
3 01-10-2020 02:27:17 9.4 C 45 %
4 01-10-2020 02:37:17 9.3 C 45 %
5 01-10-2020 02:47:17 9.5 C 45 %
6 01-10-2020 02:57:17 9.6 C 44 %
7 01-10-2020 03:07:17 9.7 C 44 %
8 01-10-2020 03:17:17 9.7 C 44 %
9 01-10-2020 03:27:17 9.7 C 44 %
10 01-10-2020 03:37:17 9.3 C 44 %
11 01-10-2020 03:47:17 9.3 C 44 %
12 01-10-2020 03:57:17 9.3 C 44 %
13 01-10-2020 04:07:17 9.3 C 44 %
14 01-10-2020 04:17:17 9.7 C 44 %
15 01-10-2020 04:27:17 9.5 C 44 %
16 01-10-2020 04:37:17 9.7 C 44 %
17 01-10-2020 04:47:17 10 C 43 %
18 01-10-2020 04:57:17 10.1 C 43 %
19 01-10-2020 05:07:18 10.2 C 42 %
20 01-10-2020 05:17:17 10 C 42 %
21 01-10-2020 05:27:17 10.1 C 42 %
22 01-10-2020 05:37:17 10 C 42 %
23 01-10-2020 05:47:17 9.6 C 43 %
24 01-10-2020 05:57:18 9.1 C 43 %
25 01-10-2020 06:07:17 9.1 C 43 %
Sensor: Nr:Datum:Temp:Feuchte:
Aussen-T/F 26 01-10-2020 06:17:17 9.1 C 43 %
27 01-10-2020 06:27:17 9.3 C 43 %
28 01-10-2020 06:37:17 9.3 C 43 %
29 01-10-2020 06:47:18 9 C 43 %
30 01-10-2020 06:57:18 9.1 C 43 %
31 01-10-2020 07:07:18 8.7 C 43 %
32 01-10-2020 07:17:17 8.9 C 43 %
33 01-10-2020 07:27:17 8.9 C 43 %
34 01-10-2020 07:37:17 9.1 C 43 %
35 01-10-2020 07:47:17 9.3 C 43 %
36 01-10-2020 07:57:17 9.5 C 43 %
37 01-10-2020 08:07:17 9.7 C 43 %
38 01-10-2020 08:17:17 9.8 C 43 %
39 01-10-2020 08:27:17 9.9 C 43 %
40 01-10-2020 08:37:17 10 C 42 %
41 01-10-2020 08:47:17 10.1 C 42 %
42 01-10-2020 08:57:17 10.1 C 42 %
43 01-10-2020 09:07:17 10.3 C 42 %
44 01-10-2020 09:17:17 10.6 C 42 %
45 01-10-2020 09:27:17 10.9 C 42 %
46 01-10-2020 09:37:17 11.2 C 42 %
47 01-10-2020 09:47:17 11.2 C 42 %
48 01-10-2020 09:57:17 11.6 C 42 %
49 01-10-2020 10:07:17 11.6 C 42 %
50 01-10-2020 10:17:18 11.8 C 43 %
Sensor: Nr:Datum:Temp:Feuchte:
Aussen-T/F 51 01-10-2020 10:27:18 12.6 C 42 %
52 01-10-2020 10:37:17 13.3 C 40 %
53 01-10-2020 10:47:18 13.5 C 39 %
54 01-10-2020 10:57:18 14.1 C 37 %
55 01-10-2020 11:07:17 14.3 C 37 %
56 01-10-2020 11:17:17 14.7 C 36 %
57 01-10-2020 11:27:17 15.1 C 35 %
58 01-10-2020 11:37:17 15.6 C 35 %
59 01-10-2020 11:47:17 16.4 C 35 %
60 01-10-2020 11:57:17 16.3 C 34 %
61 01-10-2020 12:07:17 16.3 C 34 %
62 01-10-2020 12:17:17 16.6 C 34 %
63 01-10-2020 12:27:17 16.9 C 33 %
64 01-10-2020 12:37:17 17.6 C 33 %
65 01-10-2020 12:47:17 17.5 C 32 %
66 01-10-2020 12:57:17 17.7 C 32 %
67 01-10-2020 13:07:17 17.6 C 32 %
68 01-10-2020 13:17:18 17.7 C 32 %
69 01-10-2020 13:27:18 17.7 C 32 %
70 01-10-2020 13:37:17 17.6 C 32 %
71 01-10-2020 13:47:17 18.5 C 31 %
72 01-10-2020 13:57:18 17.9 C 31 %
73 01-10-2020 14:07:18 17.5 C 32 %
74 01-10-2020 14:17:17 16.9 C 32 %
75 01-10-2020 14:27:17 16.5 C 32 %
Sensor: Nr:Datum:Temp:Feuchte:
Aussen-T/F 76 01-10-2020 14:37:18 16.6 C 32 %
77 01-10-2020 14:47:17 16.4 C 32 %
78 01-10-2020 14:57:17 15.6 C 35 %
79 01-10-2020 15:07:17 15.2 C 36 %
80 01-10-2020 15:17:18 15 C 38 %
81 01-10-2020 15:27:18 14.7 C 38 %
82 01-10-2020 15:37:17 14.5 C 38 %
83 01-10-2020 15:47:18 14.6 C 39 %
84 01-10-2020 15:57:18 14.6 C 39 %
85 01-10-2020 16:07:18 14.5 C 38 %
86 01-10-2020 16:17:18 14.5 C 39 %
87 01-10-2020 16:27:18 14.5 C 39 %
88 01-10-2020 16:37:17 14.5 C 40 %
89 01-10-2020 16:47:17 14.6 C 40 %
90 01-10-2020 16:57:17 14.3 C 40 %
91 01-10-2020 17:07:17 14.4 C 41 %
92 01-10-2020 17:17:18 14.7 C 39 %
93 01-10-2020 17:27:18 15.3 C 37 %
94 01-10-2020 17:37:18 15.6 C 37 %
95 01-10-2020 17:47:18 15 C 39 %
96 01-10-2020 17:57:18 14.9 C 41 %
97 01-10-2020 18:07:18 15.4 C 38 %
98 01-10-2020 18:17:17 15.1 C 36 %
99 01-10-2020 18:27:17 15.3 C 38 %
100 01-10-2020 18:37:17 14.6 C 40 %
Sensor: Nr:Datum:Temp:Feuchte:
Aussen-T/F 101 01-10-2020 18:47:18 14.1 C 40 %
102 01-10-2020 18:57:18 13.5 C 41 %
103 01-10-2020 19:07:18 13.1 C 42 %
104 01-10-2020 19:17:18 12.8 C 43 %
105 01-10-2020 19:27:18 12.3 C 44 %
106 01-10-2020 19:37:18 12.3 C 44 %
107 01-10-2020 19:47:17 12.2 C 43 %
108 01-10-2020 19:57:17 11.9 C 44 %
109 01-10-2020 20:07:18 11.8 C 44 %
110 01-10-2020 20:17:17 11.9 C 44 %
111 01-10-2020 20:27:17 11.7 C 44 %
112 01-10-2020 20:37:17 11.8 C 44 %
113 01-10-2020 20:47:17 11.9 C 44 %
114 01-10-2020 20:57:17 12 C 43 %
115 01-10-2020 21:07:17 12.3 C 43 %
116 01-10-2020 21:17:18 12.4 C 42 %
117 01-10-2020 21:27:18 12 C 42 %
118 01-10-2020 21:37:18 11.6 C 43 %
119 01-10-2020 21:47:18 11.5 C 44 %
120 01-10-2020 21:57:18 11.4 C 44 %
121 01-10-2020 22:07:18 11.4 C 44 %
122 01-10-2020 22:17:17 11.1 C 44 %
123 01-10-2020 22:27:17 10.7 C 45 %
124 01-10-2020 22:37:18 10.6 C 45 %
125 01-10-2020 22:47:17 10.5 C 44 %
Sensor: Nr:Datum:Temp:Feuchte:
Aussen-T/F 126 01-10-2020 22:57:17 10.5 C 44 %
127 01-10-2020 23:07:18 10.5 C 44 %
128 01-10-2020 23:17:17 10.7 C 44 %
129 01-10-2020 23:27:17 10.6 C 45 %
130 01-10-2020 23:37:17 10.6 C 45 %
131 01-10-2020 23:47:17 10.8 C 45 %
132 01-10-2020 23:57:17 10.7 C 45 %
Sensor: Nr:Datum:Temp:Feuchte:
G-T/H 1 01-10-2020 02:07:18 15.6 C 71 %
2 01-10-2020 02:17:17 15.6 C 71 %
3 01-10-2020 02:27:17 15.6 C 71 %
4 01-10-2020 02:37:17 15.6 C 71 %
5 01-10-2020 02:47:17 15.6 C 71 %
6 01-10-2020 02:57:17 15.6 C 71 %
7 01-10-2020 03:07:17 15.6 C 71 %
8 01-10-2020 03:17:17 15.6 C 71 %
9 01-10-2020 03:27:17 15.6 C 71 %
10 01-10-2020 03:37:17 15.5 C 71 %
11 01-10-2020 03:47:17 15.6 C 71 %
12 01-10-2020 03:57:17 15.5 C 71 %
13 01-10-2020 04:07:17 15.5 C 71 %
14 01-10-2020 04:17:17 15.5 C 71 %
15 01-10-2020 04:27:17 15.5 C 71 %
16 01-10-2020 04:37:17 15.5 C 71 %
17 01-10-2020 04:47:17 15.5 C 71 %
18 01-10-2020 04:57:17 15.5 C 71 %
19 01-10-2020 05:07:18 15.5 C 71 %
20 01-10-2020 05:17:17 15.5 C 71 %
21 01-10-2020 05:27:17 15.4 C 71 %
22 01-10-2020 05:37:17 15.5 C 71 %
23 01-10-2020 05:47:17 15.3 C 71 %
24 01-10-2020 05:57:18 15.4 C 71 %
25 01-10-2020 06:07:17 15.4 C 71 %
Sensor: Nr:Datum:Temp:Feuchte:
G-T/H 26 01-10-2020 06:17:17 15.4 C 71 %
27 01-10-2020 06:27:17 15.4 C 71 %
28 01-10-2020 06:37:17 15.3 C 71 %
29 01-10-2020 06:47:18 15.4 C 71 %
30 01-10-2020 06:57:18 15.3 C 71 %
31 01-10-2020 07:07:18 15.3 C 71 %
32 01-10-2020 07:17:17 15.3 C 70 %
33 01-10-2020 07:27:17 15.3 C 71 %
34 01-10-2020 07:37:17 15.3 C 70 %
35 01-10-2020 07:47:17 15.3 C 70 %
36 01-10-2020 07:57:17 15.3 C 70 %
37 01-10-2020 08:07:17 15.2 C 70 %
38 01-10-2020 08:17:17 15.2 C 70 %
39 01-10-2020 08:27:17 15.2 C 70 %
40 01-10-2020 08:37:17 15 C 70 %
41 01-10-2020 08:47:17 15.2 C 70 %
42 01-10-2020 08:57:17 15.2 C 70 %
43 01-10-2020 09:07:17 15.2 C 70 %
44 01-10-2020 09:17:17 15.2 C 70 %
45 01-10-2020 09:27:17 15.2 C 70 %
46 01-10-2020 09:37:17 15.2 C 70 %
47 01-10-2020 09:47:17 15.2 C 70 %
48 01-10-2020 09:57:17 15.2 C 70 %
49 01-10-2020 10:07:17 15.2 C 70 %
50 01-10-2020 10:17:18 15.2 C 70 %
Sensor: Nr:Datum:Temp:Feuchte:
G-T/H 51 01-10-2020 10:27:18 15.2 C 71 %
52 01-10-2020 10:37:17 15.2 C 71 %
53 01-10-2020 10:47:18 15.2 C 71 %
54 01-10-2020 10:57:18 15.2 C 71 %
55 01-10-2020 11:07:17 15.2 C 71 %
56 01-10-2020 11:17:17 15.2 C 71 %
57 01-10-2020 11:27:17 15.2 C 71 %
58 01-10-2020 11:37:17 15.2 C 71 %
59 01-10-2020 11:47:17 15.2 C 71 %
60 01-10-2020 11:57:17 15.2 C 71 %
61 01-10-2020 12:07:17 15.2 C 71 %
62 01-10-2020 12:17:17 15.2 C 71 %
63 01-10-2020 12:27:17 15.2 C 71 %
64 01-10-2020 12:37:17 15.2 C 71 %
65 01-10-2020 12:47:17 15.2 C 71 %
66 01-10-2020 12:57:17 15.2 C 71 %
67 01-10-2020 13:07:17 15.3 C 71 %
68 01-10-2020 13:17:18 15.3 C 71 %
69 01-10-2020 13:27:18 15.2 C 71 %
70 01-10-2020 13:37:17 15.3 C 71 %
71 01-10-2020 13:47:17 15.3 C 71 %
72 01-10-2020 13:57:18 15.3 C 71 %
73 01-10-2020 14:07:18 15.3 C 71 %
74 01-10-2020 14:17:17 15.3 C 71 %
75 01-10-2020 14:27:17 15.3 C 71 %
Sensor: Nr:Datum:Temp:Feuchte:
G-T/H 76 01-10-2020 14:37:18 15.3 C 71 %
77 01-10-2020 14:47:17 15.3 C 71 %
78 01-10-2020 14:57:17 15.4 C 71 %
79 01-10-2020 15:07:17 15.3 C 71 %
80 01-10-2020 15:17:18 15.4 C 71 %
81 01-10-2020 15:27:18 15.4 C 71 %
82 01-10-2020 15:37:17 15.4 C 71 %
83 01-10-2020 15:47:18 15.4 C 71 %
84 01-10-2020 15:57:18 15.4 C 71 %
85 01-10-2020 16:07:18 15.4 C 71 %
86 01-10-2020 16:17:18 15.4 C 71 %
87 01-10-2020 16:27:18 15.4 C 71 %
88 01-10-2020 16:37:17 15.4 C 71 %
89 01-10-2020 16:47:17 15.5 C 71 %
90 01-10-2020 16:57:17 15.4 C 71 %
91 01-10-2020 17:07:17 15.4 C 71 %
92 01-10-2020 17:17:18 15.4 C 71 %
93 01-10-2020 17:27:18 15.5 C 71 %
94 01-10-2020 17:37:18 15.5 C 71 %
95 01-10-2020 17:47:18 15.5 C 71 %
96 01-10-2020 17:57:18 15.5 C 71 %
97 01-10-2020 18:07:18 15.5 C 71 %
98 01-10-2020 18:17:17 15.6 C 71 %
99 01-10-2020 18:27:17 15.5 C 71 %
100 01-10-2020 18:37:17 15.6 C 71 %
Sensor: Nr:Datum:Temp:Feuchte:
G-T/H 101 01-10-2020 18:47:18 15.6 C 71 %
102 01-10-2020 18:57:18 15.5 C 71 %
103 01-10-2020 19:07:18 15.5 C 71 %
104 01-10-2020 19:17:18 15.5 C 71 %
105 01-10-2020 19:27:18 15.5 C 71 %
106 01-10-2020 19:37:18 15.6 C 71 %
107 01-10-2020 19:47:17 15.6 C 71 %
108 01-10-2020 19:57:17 15.5 C 71 %
109 01-10-2020 20:07:18 15.5 C 71 %
110 01-10-2020 20:17:17 15.5 C 71 %
111 01-10-2020 20:27:17 15.6 C 71 %
112 01-10-2020 20:37:17 15.6 C 71 %
113 01-10-2020 20:47:17 15.6 C 71 %
114 01-10-2020 20:57:17 15.6 C 71 %
115 01-10-2020 21:07:17 15.6 C 71 %
116 01-10-2020 21:17:18 15.6 C 71 %
117 01-10-2020 21:27:18 15.6 C 71 %
118 01-10-2020 21:37:18 15.6 C 71 %
119 01-10-2020 21:47:18 15.6 C 71 %
120 01-10-2020 21:57:18 15.6 C 71 %
121 01-10-2020 22:07:18 15.6 C 71 %
122 01-10-2020 22:17:17 15.5 C 71 %
123 01-10-2020 22:27:17 15.5 C 71 %
124 01-10-2020 22:37:18 15.5 C 71 %
125 01-10-2020 22:47:17 15.5 C 71 %
Sensor: Nr:Datum:Temp:Feuchte:
G-T/H 126 01-10-2020 22:57:17 15.5 C 71 %
127 01-10-2020 23:07:18 15.5 C 71 %
128 01-10-2020 23:17:17 15.5 C 71 %
129 01-10-2020 23:27:17 15.5 C 71 %
130 01-10-2020 23:37:17 15.5 C 71 %
131 01-10-2020 23:47:17 15.5 C 71 %
132 01-10-2020 23:57:17 15.5 C 71 %

Legende:
   Min
   Max


Maximal/Minimal-Werte vom 01.10.2020 - 01.10.2020

Sensor Min Max Avg
Temp
(Aussen-T/F)
8.7 °C
01-10-2020  07:07:18
18.5 °C
01-10-2020  13:47:17
12.45 °C
Feuchte
(Aussen-T/F)
31 %
01-10-2020  13:47:17
45 %
01-10-2020  02:07:18
40.58 %
Temp
(G-T/H)
15 °C
01-10-2020  08:37:17
15.6 °C
01-10-2020  02:07:18
15.4 °C
Feuchte
(G-T/H)
70 %
01-10-2020  07:17:17
71 %
01-10-2020  02:07:18
70.86 %

Die Daten stammen von einer Davis Vantage Pro 2 Wetter-Station und werden unter Linux mit der Software wview2wettercgi und aufbereitet. Alle Angaben erfolgen ohne Gewähr für ihre Vollständigkeit oder Richtigkeit.
Kontakt: Rainer Krienke krienke@uni-koblenz.de . Meine Webseiten an der Uni Koblenz oder privat.
Version: $Revision: 0.78 $